Time;durP1;ratioP1;P1;durP2;ratioP2;P2;SDS_P1;SDS_P2;PMS_P1;PMS_P2;Temp;Humidity;BMP_temperature;BMP_pressure;BME280_temperature;BME280_humidity;BME280_pressure;Samples;Min_cycle;Max_cycle;Signal;HPM_P1;HPM_P2
2022/09/19 00:01:14;;;;;;;;;;;12.80;99.90;;;;;;4989843;28;19929;-68
2022/09/19 00:03:43;;;;;;;;;;;12.90;99.90;;;;;;4990093;28;20012;-68
2022/09/19 00:06:11;;;;;;;;;;;12.90;99.90;;;;;;4990865;28;20305;-67
2022/09/19 00:08:39;;;;;;;;;;;12.90;99.90;;;;;;4992264;28;20334;-67
2022/09/19 00:11:06;;;;;;;;;;;12.90;99.90;;;;;;4995782;28;19924;-68
2022/09/19 00:13:34;;;;;;;;;;;12.90;99.90;;;;;;4998131;28;19948;-70
2022/09/19 00:16:01;;;;;;;;;;;12.90;99.90;;;;;;4991893;28;19917;-69
2022/09/19 00:18:28;;;;;;;;;;;12.90;99.90;;;;;;4994285;28;20390;-69
2022/09/19 00:20:55;;;;;;;;;;;13.00;99.90;;;;;;4997148;28;20008;-70
2022/09/19 00:26:09;;;;;;;;;;;13.00;99.90;;;;;;4993055;28;20020;-66
2022/09/19 00:28:36;;;;;;;;;;;13.00;99.90;;;;;;4995292;28;19936;-69
2022/09/19 00:31:03;;;;;;;;;;;13.00;99.90;;;;;;4993690;28;20368;-70
2022/09/19 00:33:31;;;;;;;;;;;12.90;99.90;;;;;;4997008;28;19929;-68
2022/09/19 00:35:59;;;;;;;;;;;12.90;99.90;;;;;;4995401;28;20000;-66
2022/09/19 00:38:27;;;;;;;;;;;13.00;99.90;;;;;;4996085;28;20003;-72
2022/09/19 00:40:55;;;;;;;;;;;13.00;99.90;;;;;;4996073;28;19962;-68
2022/09/19 00:43:25;;;;;;;;;;;13.00;99.90;;;;;;4994680;28;19922;-68
2022/09/19 00:45:52;;;;;;;;;;;13.00;99.90;;;;;;4995996;28;19929;-65
2022/09/19 00:48:21;;;;;;;;;;;12.90;99.90;;;;;;4995109;28;21161;-68
2022/09/19 00:50:51;;;;;;;;;;;13.00;99.90;;;;;;5013324;28;20308;-67
2022/09/19 00:53:22;;;;;;;;;;;13.00;99.90;;;;;;4995327;28;19929;-67
2022/09/19 00:55:52;;;;;;;;;;;13.00;99.90;;;;;;4994489;28;19917;-68
2022/09/19 00:58:19;;;;;;;;;;;13.00;99.90;;;;;;4989973;28;20263;-66
2022/09/19 01:00:45;;;;;;;;;;;13.00;99.90;;;;;;4991649;28;20340;-67
2022/09/19 01:03:12;;;;;;;;;;;13.00;99.90;;;;;;4993777;28;19918;-68
2022/09/19 01:05:41;;;;;;;;;;;13.00;99.90;;;;;;4994807;28;19924;-67
2022/09/19 01:08:17;;;;;;;;;;;13.00;99.90;;;;;;4989870;28;20363;-66
2022/09/19 01:10:57;;;;;;;;;;;13.00;99.90;;;;;;4990119;28;20040;-67
2022/09/19 01:13:38;;;;;;;;;;;13.00;99.90;;;;;;5010001;28;19972;-68
2022/09/19 01:16:07;;;;;;;;;;;13.00;99.90;;;;;;4988116;28;20631;-68
2022/09/19 01:18:42;;;;;;;;;;;13.00;99.90;;;;;;4993132;28;20190;-71
2022/09/19 01:24:05;;;;;;;;;;;13.10;99.90;;;;;;4992230;28;19956;-68
2022/09/19 01:26:32;;;;;;;;;;;13.10;99.90;;;;;;4987223;28;20020;-71
2022/09/19 01:29:09;;;;;;;;;;;13.00;99.90;;;;;;4993129;28;20376;-69
2022/09/19 01:31:39;;;;;;;;;;;13.00;99.90;;;;;;4990499;28;19917;-68
2022/09/19 01:34:16;;;;;;;;;;;13.10;99.90;;;;;;4989619;28;19943;-67
2022/09/19 01:37:02;;;;;;;;;;;13.10;99.90;;;;;;4990091;28;20020;-72
2022/09/19 01:39:32;;;;;;;;;;;13.10;99.90;;;;;;5009150;28;19930;-66
2022/09/19 01:41:59;;;;;;;;;;;13.10;99.90;;;;;;4991388;28;19929;-70
2022/09/19 01:44:27;;;;;;;;;;;13.10;99.90;;;;;;5008948;28;20592;-68
2022/09/19 01:47:14;;;;;;;;;;;13.10;99.90;;;;;;4989444;28;20266;-70
2022/09/19 01:49:53;;;;;;;;;;;13.10;99.90;;;;;;4989213;28;19980;-66
2022/09/19 01:52:22;;;;;;;;;;;13.20;99.90;;;;;;4989819;28;19935;-66
2022/09/19 01:55:12;;;;;;;;;;;13.20;99.90;;;;;;4987391;28;20262;-67
2022/09/19 01:58:04;;;;;;;;;;;13.20;99.90;;;;;;4984952;28;19921;-67
2022/09/19 02:00:32;;;;;;;;;;;13.20;99.90;;;;;;4993760;28;19945;-66
2022/09/19 02:03:22;;;;;;;;;;;13.20;99.90;;;;;;5011846;28;20294;-67
2022/09/19 02:05:53;;;;;;;;;;;13.20;99.90;;;;;;5011733;28;19921;-68
2022/09/19 02:08:28;;;;;;;;;;;13.20;99.90;;;;;;4988362;28;19941;-67
2022/09/19 02:11:00;;;;;;;;;;;13.20;99.90;;;;;;4994379;28;19925;-70
2022/09/19 02:13:33;;;;;;;;;;;13.20;99.90;;;;;;5010318;28;20224;-71
2022/09/19 02:16:11;;;;;;;;;;;13.20;99.90;;;;;;4990741;28;19929;-70
2022/09/19 02:18:45;;;;;;;;;;;13.20;99.90;;;;;;4988045;28;20048;-72
2022/09/19 02:21:17;;;;;;;;;;;13.20;99.90;;;;;;5006961;28;19929;-67
2022/09/19 02:23:47;;;;;;;;;;;13.20;99.90;;;;;;4988051;28;20216;-70
2022/09/19 02:26:16;;;;;;;;;;;13.20;99.90;;;;;;4989232;28;20124;-66
2022/09/19 02:28:44;;;;;;;;;;;13.20;99.90;;;;;;5007128;28;20019;-68
2022/09/19 02:31:16;;;;;;;;;;;13.30;99.90;;;;;;5010631;28;20330;-74
2022/09/19 02:33:47;;;;;;;;;;;13.30;99.90;;;;;;4992547;28;19929;-66
2022/09/19 02:36:22;;;;;;;;;;;13.30;99.90;;;;;;5009122;28;19968;-68
2022/09/19 02:39:01;;;;;;;;;;;13.30;99.90;;;;;;5011344;28;20251;-69
2022/09/19 02:41:56;;;;;;;;;;;13.30;99.90;;;;;;4996179;28;19936;-70
2022/09/19 02:44:52;;;;;;;;;;;13.20;99.90;;;;;;5012284;28;19917;-69
2022/09/19 02:47:27;;;;;;;;;;;13.20;99.90;;;;;;5012884;28;20529;-67
2022/09/19 02:50:06;;;;;;;;;;;13.20;99.90;;;;;;5014628;28;20382;-67
2022/09/19 02:52:33;;;;;;;;;;;13.20;99.90;;;;;;5013182;28;19921;-67
2022/09/19 02:55:14;;;;;;;;;;;13.20;99.90;;;;;;4996374;28;20766;-68
2022/09/19 02:57:43;;;;;;;;;;;13.20;99.90;;;;;;4996816;28;19925;-70
2022/09/19 03:00:12;;;;;;;;;;;13.20;99.90;;;;;;4996533;28;19918;-71
2022/09/19 03:02:47;;;;;;;;;;;13.20;99.90;;;;;;4994130;28;19925;-67
2022/09/19 03:05:19;;;;;;;;;;;13.20;99.90;;;;;;5013154;28;20025;-70
2022/09/19 03:07:53;;;;;;;;;;;13.20;99.90;;;;;;4995645;28;20046;-67
2022/09/19 03:10:21;;;;;;;;;;;13.10;99.90;;;;;;5011619;28;19930;-67
2022/09/19 03:12:56;;;;;;;;;;;13.10;99.90;;;;;;5013549;28;19967;-68
2022/09/19 03:15:32;;;;;;;;;;;13.10;99.90;;;;;;5011605;28;19917;-67
2022/09/19 03:18:00;;;;;;;;;;;13.10;99.90;;;;;;4994141;28;19917;-66
2022/09/19 03:20:27;;;;;;;;;;;13.10;99.90;;;;;;5011662;28;19936;-67
2022/09/19 03:22:53;;;;;;;;;;;13.00;99.90;;;;;;4995179;28;19921;-68
2022/09/19 03:25:25;;;;;;;;;;;13.00;99.90;;;;;;4995067;28;20003;-66
2022/09/19 03:27:53;;;;;;;;;;;13.00;99.90;;;;;;4993729;28;19926;-70
2022/09/19 03:30:20;;;;;;;;;;;13.00;99.90;;;;;;4993291;28;19940;-67
2022/09/19 03:32:48;;;;;;;;;;;13.00;99.90;;;;;;5012344;28;19917;-67
2022/09/19 03:35:15;;;;;;;;;;;13.00;99.90;;;;;;4993464;28;19983;-66
2022/09/19 03:37:44;;;;;;;;;;;13.00;99.90;;;;;;4994274;28;20004;-66
2022/09/19 03:40:11;;;;;;;;;;;13.00;99.90;;;;;;4990196;28;19937;-66
2022/09/19 03:42:39;;;;;;;;;;;13.00;99.90;;;;;;4994706;28;20020;-69
2022/09/19 03:45:06;;;;;;;;;;;13.00;99.90;;;;;;4990479;28;19929;-67
2022/09/19 03:47:34;;;;;;;;;;;13.00;99.90;;;;;;4995693;28;19917;-67
2022/09/19 03:50:01;;;;;;;;;;;13.00;99.90;;;;;;4990733;28;19957;-70
2022/09/19 03:52:33;;;;;;;;;;;13.00;99.90;;;;;;5012707;28;20336;-68
2022/09/19 03:55:00;;;;;;;;;;;12.90;99.90;;;;;;5013079;28;20335;-65
2022/09/19 03:57:30;;;;;;;;;;;12.90;99.90;;;;;;4994568;28;19953;-67
2022/09/19 03:59:57;;;;;;;;;;;12.80;99.90;;;;;;4993303;28;19933;-68
2022/09/19 04:02:24;;;;;;;;;;;12.80;99.90;;;;;;4989526;28;20043;-69
2022/09/19 04:04:54;;;;;;;;;;;12.80;99.90;;;;;;5007445;28;19987;-70
2022/09/19 04:07:21;;;;;;;;;;;12.80;99.90;;;;;;4994844;28;19918;-67
2022/09/19 04:09:49;;;;;;;;;;;12.80;99.90;;;;;;4990041;28;19969;-67
2022/09/19 04:12:16;;;;;;;;;;;12.80;99.90;;;;;;4996046;28;20052;-68
2022/09/19 04:14:43;;;;;;;;;;;12.80;99.90;;;;;;4988918;28;19933;-66
2022/09/19 04:17:11;;;;;;;;;;;12.80;99.90;;;;;;5011875;28;19930;-66
2022/09/19 04:19:52;;;;;;;;;;;12.80;99.90;;;;;;5013147;28;19918;-69
2022/09/19 04:22:26;;;;;;;;;;;12.80;99.90;;;;;;4985592;28;20770;-67
2022/09/19 04:25:15;;;;;;;;;;;12.80;99.90;;;;;;5010619;28;19929;-67
2022/09/19 04:28:03;;;;;;;;;;;12.70;99.90;;;;;;4988887;28;19922;-70
2022/09/19 04:30:34;;;;;;;;;;;12.70;99.90;;;;;;5011283;28;20364;-67
2022/09/19 04:33:03;;;;;;;;;;;12.70;99.90;;;;;;5009828;28;20327;-67
2022/09/19 04:35:34;;;;;;;;;;;12.60;99.90;;;;;;5011338;28;19927;-66
2022/09/19 04:38:03;;;;;;;;;;;12.60;99.90;;;;;;5005787;28;19927;-71
2022/09/19 04:40:30;;;;;;;;;;;12.60;99.90;;;;;;4992931;28;20457;-68
2022/09/19 04:42:57;;;;;;;;;;;12.60;99.90;;;;;;4992921;28;20824;-67
2022/09/19 04:45:24;;;;;;;;;;;12.60;99.90;;;;;;4991300;28;19964;-70
2022/09/19 04:48:19;;;;;;;;;;;12.60;99.90;;;;;;4989724;28;19932;-67
2022/09/19 04:50:50;;;;;;;;;;;12.50;99.90;;;;;;4990677;28;19956;-69
2022/09/19 04:53:18;;;;;;;;;;;12.60;99.90;;;;;;4992778;28;20409;-68
2022/09/19 04:55:48;;;;;;;;;;;12.60;99.90;;;;;;5010044;28;19966;-66
2022/09/19 04:58:15;;;;;;;;;;;12.70;99.90;;;;;;4992269;28;19921;-69
2022/09/19 05:00:50;;;;;;;;;;;12.70;99.90;;;;;;4990665;28;19929;-65
2022/09/19 05:03:17;;;;;;;;;;;12.70;99.90;;;;;;4988206;28;19952;-70
2022/09/19 05:05:50;;;;;;;;;;;12.70;99.90;;;;;;4990463;28;19930;-67
2022/09/19 05:08:30;;;;;;;;;;;12.70;99.90;;;;;;4991250;28;19929;-68
2022/09/19 05:11:02;;;;;;;;;;;12.70;99.90;;;;;;4991580;28;20068;-69
2022/09/19 05:13:31;;;;;;;;;;;12.70;99.90;;;;;;5009249;28;19926;-67
2022/09/19 05:16:02;;;;;;;;;;;12.70;99.90;;;;;;5009208;28;20020;-66
2022/09/19 05:18:35;;;;;;;;;;;12.70;99.90;;;;;;4988317;28;19921;-66
2022/09/19 05:21:03;;;;;;;;;;;12.70;99.90;;;;;;4989575;28;19940;-68
2022/09/19 05:23:30;;;;;;;;;;;12.50;99.90;;;;;;4995852;28;19928;-65
2022/09/19 05:26:01;;;;;;;;;;;12.40;99.90;;;;;;5005054;28;19921;-67
2022/09/19 05:28:28;;;;;;;;;;;12.20;99.90;;;;;;5007409;28;19929;-67
2022/09/19 05:30:55;;;;;;;;;;;12.10;99.90;;;;;;5007927;28;19941;-67
2022/09/19 05:33:26;;;;;;;;;;;12.10;99.90;;;;;;5008213;28;20374;-69
2022/09/19 05:35:59;;;;;;;;;;;12.00;99.90;;;;;;4989076;28;19937;-69
2022/09/19 05:38:44;;;;;;;;;;;12.00;99.90;;;;;;4990620;28;19928;-70
2022/09/19 05:41:49;;;;;;;;;;;12.10;99.90;;;;;;4976293;28;20324;-69
2022/09/19 05:44:17;;;;;;;;;;;12.20;99.90;;;;;;4990675;28;19922;-69
2022/09/19 05:46:52;;;;;;;;;;;12.20;99.90;;;;;;5007565;28;19921;-70
2022/09/19 05:49:20;;;;;;;;;;;12.30;99.90;;;;;;5009661;28;19931;-67
2022/09/19 05:51:47;;;;;;;;;;;12.30;99.90;;;;;;4989255;28;19924;-68
2022/09/19 05:54:20;;;;;;;;;;;12.40;99.90;;;;;;5009135;28;19969;-67
2022/09/19 05:57:05;;;;;;;;;;;12.40;99.90;;;;;;4988234;28;19936;-69
2022/09/19 05:59:32;;;;;;;;;;;12.50;99.90;;;;;;5007268;28;19929;-68
2022/09/19 06:02:01;;;;;;;;;;;12.50;99.90;;;;;;4996954;28;20458;-67
2022/09/19 06:04:50;;;;;;;;;;;12.60;99.90;;;;;;4988928;28;19963;-68
2022/09/19 06:07:19;;;;;;;;;;;12.60;99.90;;;;;;4990241;28;19975;-67
2022/09/19 06:09:49;;;;;;;;;;;12.60;99.90;;;;;;4990668;28;19940;-71
2022/09/19 06:12:16;;;;;;;;;;;12.60;99.90;;;;;;4989372;28;19936;-68
2022/09/19 06:14:43;;;;;;;;;;;12.80;99.90;;;;;;5010702;28;19936;-66
2022/09/19 06:17:16;;;;;;;;;;;12.80;99.90;;;;;;4993608;28;19932;-68
2022/09/19 06:19:55;;;;;;;;;;;12.80;99.90;;;;;;5012733;28;19930;-68
2022/09/19 06:22:25;;;;;;;;;;;12.90;99.90;;;;;;4996305;28;20356;-67
2022/09/19 06:24:54;;;;;;;;;;;12.90;99.90;;;;;;5012833;28;20468;-67
2022/09/19 06:27:21;;;;;;;;;;;13.00;99.90;;;;;;5015472;28;21802;-67
2022/09/19 06:29:48;;;;;;;;;;;13.00;99.90;;;;;;4995105;28;19925;-67
2022/09/19 06:32:21;;;;;;;;;;;13.00;99.90;;;;;;4992221;28;20543;-69
2022/09/19 06:35:00;;;;;;;;;;;13.00;99.90;;;;;;5013459;28;19921;-68
2022/09/19 06:37:31;;;;;;;;;;;12.90;99.90;;;;;;5013671;28;19937;-69
2022/09/19 06:39:58;;;;;;;;;;;12.90;99.90;;;;;;4992932;28;19929;-68
2022/09/19 06:42:49;;;;;;;;;;;12.80;99.90;;;;;;4991760;28;19921;-67
2022/09/19 06:45:46;;;;;;;;;;;12.90;99.90;;;;;;4984101;28;19933;-69
2022/09/19 06:48:39;;;;;;;;;;;12.90;99.90;;;;;;5011761;28;21269;-68
2022/09/19 06:51:23;;;;;;;;;;;12.90;99.90;;;;;;4994903;28;19929;-66
2022/09/19 06:53:51;;;;;;;;;;;12.90;99.90;;;;;;5013598;28;19980;-69
2022/09/19 06:56:17;;;;;;;;;;;12.90;99.90;;;;;;4980140;28;19957;-67
2022/09/19 06:58:46;;;;;;;;;;;13.00;99.90;;;;;;4997432;28;19938;-68
2022/09/19 07:01:15;;;;;;;;;;;12.90;99.90;;;;;;4994665;28;19928;-67
2022/09/19 07:03:42;;;;;;;;;;;13.00;99.90;;;;;;4993262;28;20039;-68
2022/09/19 07:06:13;;;;;;;;;;;13.00;99.90;;;;;;4989645;28;19939;-68
2022/09/19 07:08:57;;;;;;;;;;;13.10;99.90;;;;;;5011675;28;20107;-72
2022/09/19 07:11:24;;;;;;;;;;;13.10;99.90;;;;;;5013242;28;19987;-67
2022/09/19 07:13:55;;;;;;;;;;;13.10;99.90;;;;;;4995137;28;20029;-67
2022/09/19 07:16:23;;;;;;;;;;;13.20;99.90;;;;;;5009835;28;20343;-69
2022/09/19 07:18:50;;;;;;;;;;;13.20;99.90;;;;;;5012275;28;19972;-68
2022/09/19 07:21:47;;;;;;;;;;;13.20;99.90;;;;;;4998852;28;20657;-68
2022/09/19 07:24:22;;;;;;;;;;;13.20;99.90;;;;;;5009781;28;20008;-68
2022/09/19 07:26:59;;;;;;;;;;;13.20;99.90;;;;;;5010973;28;19972;-67
2022/09/19 07:29:27;;;;;;;;;;;13.10;99.90;;;;;;4993313;28;19921;-69
2022/09/19 07:31:54;;;;;;;;;;;13.10;99.90;;;;;;5008308;28;19922;-70
2022/09/19 07:34:23;;;;;;;;;;;13.10;99.90;;;;;;5008953;28;20402;-68
2022/09/19 07:36:52;;;;;;;;;;;13.10;99.90;;;;;;4991381;28;20012;-65
2022/09/19 07:39:19;;;;;;;;;;;13.20;99.90;;;;;;5010219;28;20016;-68
2022/09/19 07:41:50;;;;;;;;;;;13.20;99.90;;;;;;4995028;28;19992;-68
2022/09/19 07:44:36;;;;;;;;;;;13.30;99.90;;;;;;4989674;28;19932;-69
2022/09/19 07:50:09;;;;;;;;;;;13.40;99.90;;;;;;4987347;28;20020;-68
2022/09/19 07:52:46;;;;;;;;;;;13.30;99.90;;;;;;4992376;28;19917;-69
2022/09/19 07:55:17;;;;;;;;;;;13.40;99.90;;;;;;4990643;28;19932;-69
2022/09/19 07:57:50;;;;;;;;;;;13.40;99.90;;;;;;4987834;28;19952;-68
2022/09/19 08:00:19;;;;;;;;;;;13.40;99.90;;;;;;5008261;28;20271;-69
2022/09/19 08:03:01;;;;;;;;;;;13.50;99.90;;;;;;4992258;28;20486;-68
2022/09/19 08:05:33;;;;;;;;;;;13.50;99.90;;;;;;4987897;28;20378;-69
2022/09/19 08:08:00;;;;;;;;;;;13.50;99.90;;;;;;5007362;28;19921;-67
2022/09/19 08:10:30;;;;;;;;;;;13.40;99.90;;;;;;4993471;28;20397;-69
2022/09/19 08:13:04;;;;;;;;;;;13.50;99.90;;;;;;4976049;28;20022;-69
2022/09/19 08:15:33;;;;;;;;;;;13.50;99.90;;;;;;4988954;28;19931;-69
2022/09/19 08:18:01;;;;;;;;;;;13.60;99.90;;;;;;5009071;28;19921;-69
2022/09/19 08:20:31;;;;;;;;;;;13.70;99.90;;;;;;5007715;28;19940;-67
2022/09/19 08:22:59;;;;;;;;;;;13.70;99.90;;;;;;4990350;28;19936;-68
2022/09/19 08:25:27;;;;;;;;;;;13.60;99.90;;;;;;5008023;28;19980;-68
2022/09/19 08:27:55;;;;;;;;;;;13.70;99.90;;;;;;4992587;28;19921;-68
2022/09/19 08:30:23;;;;;;;;;;;13.70;99.90;;;;;;5008307;28;19926;-70
2022/09/19 08:32:51;;;;;;;;;;;13.50;99.90;;;;;;4986682;28;20300;-68
2022/09/19 08:35:18;;;;;;;;;;;13.50;99.90;;;;;;4993274;28;20847;-69
2022/09/19 08:37:46;;;;;;;;;;;13.50;99.90;;;;;;4987872;28;19960;-68
2022/09/19 08:40:21;;;;;;;;;;;13.50;99.90;;;;;;4991232;28;19937;-69
2022/09/19 08:43:09;;;;;;;;;;;13.50;99.90;;;;;;5008702;28;19940;-68
2022/09/19 08:45:53;;;;;;;;;;;13.40;99.90;;;;;;4990416;28;20362;-69
2022/09/19 08:48:24;;;;;;;;;;;13.40;99.90;;;;;;4990275;28;19936;-68
2022/09/19 08:50:56;;;;;;;;;;;13.40;99.90;;;;;;4991810;28;19929;-68
2022/09/19 08:53:27;;;;;;;;;;;13.40;99.90;;;;;;4992123;28;20012;-67
2022/09/19 08:55:55;;;;;;;;;;;13.50;99.90;;;;;;4989970;28;19936;-65
2022/09/19 08:58:23;;;;;;;;;;;13.60;99.90;;;;;;5003263;28;19954;-67
2022/09/19 09:01:10;;;;;;;;;;;13.50;99.90;;;;;;4991535;28;19940;-65
2022/09/19 09:04:16;;;;;;;;;;;13.40;99.90;;;;;;4990026;28;20084;-67
2022/09/19 09:06:52;;;;;;;;;;;13.50;99.90;;;;;;4997187;28;19968;-66
2022/09/19 09:09:26;;;;;;;;;;;13.50;99.90;;;;;;5008105;28;19952;-66
2022/09/19 09:11:53;;;;;;;;;;;13.40;99.90;;;;;;5011512;28;20343;-67
2022/09/19 09:14:23;;;;;;;;;;;13.50;99.90;;;;;;4984974;28;20429;-66
2022/09/19 09:17:10;;;;;;;;;;;13.40;99.90;;;;;;4993082;28;19921;-66
2022/09/19 09:19:56;;;;;;;;;;;13.40;99.90;;;;;;4993460;28;20824;-68
2022/09/19 09:22:25;;;;;;;;;;;13.30;99.90;;;;;;4989103;28;19929;-65
2022/09/19 09:25:30;;;;;;;;;;;13.30;99.90;;;;;;4983756;28;19989;-66
2022/09/19 09:28:19;;;;;;;;;;;13.10;99.90;;;;;;5007289;28;20004;-67
2022/09/19 09:31:25;;;;;;;;;;;13.10;99.90;;;;;;4990689;28;20154;-67
2022/09/19 09:34:03;;;;;;;;;;;13.20;99.90;;;;;;4996081;28;19921;-66
2022/09/19 09:36:33;;;;;;;;;;;13.20;99.90;;;;;;5006721;28;19929;-64
2022/09/19 09:39:27;;;;;;;;;;;13.20;99.90;;;;;;4991539;28;19921;-67
2022/09/19 09:42:01;;;;;;;;;;;13.20;99.90;;;;;;5004325;28;20511;-66
2022/09/19 09:44:51;;;;;;;;;;;13.20;99.90;;;;;;5006480;28;19929;-66
2022/09/19 09:47:39;;;;;;;;;;;13.20;99.90;;;;;;5008980;28;19951;-66
2022/09/19 09:50:26;;;;;;;;;;;13.30;99.90;;;;;;5003512;28;19933;-66
2022/09/19 09:53:17;;;;;;;;;;;13.40;99.90;;;;;;4979172;28;19922;-67
2022/09/19 09:56:14;;;;;;;;;;;13.40;99.90;;;;;;5007777;28;19917;-68
2022/09/19 09:58:48;;;;;;;;;;;13.50;99.90;;;;;;4990883;28;20364;-68
2022/09/19 10:04:24;;;;;;;;;;;13.70;99.90;;;;;;5007163;28;19929;-67
2022/09/19 10:07:12;;;;;;;;;;;13.70;99.90;;;;;;4991542;28;20016;-68
2022/09/19 10:09:51;;;;;;;;;;;13.60;99.90;;;;;;5011405;28;19925;-68
2022/09/19 10:12:23;;;;;;;;;;;13.60;99.90;;;;;;4986908;28;20000;-68
2022/09/19 10:15:16;;;;;;;;;;;13.60;99.90;;;;;;4993674;28;20340;-69
2022/09/19 10:18:07;;;;;;;;;;;13.70;99.90;;;;;;5010397;28;20261;-68
2022/09/19 10:20:49;;;;;;;;;;;13.70;99.90;;;;;;4994957;28;20069;-67
2022/09/19 10:23:23;;;;;;;;;;;13.70;99.90;;;;;;5009280;28;19930;-68
2022/09/19 10:25:59;;;;;;;;;;;13.70;99.90;;;;;;5010028;28;19929;-67
2022/09/19 10:28:43;;;;;;;;;;;13.60;99.90;;;;;;4990618;28;20438;-67
2022/09/19 10:31:28;;;;;;;;;;;13.70;99.90;;;;;;5005172;28;20632;-68
2022/09/19 10:34:04;;;;;;;;;;;13.70;99.90;;;;;;5001454;28;20055;-70
2022/09/19 10:36:33;;;;;;;;;;;13.80;99.90;;;;;;5007978;28;19930;-68
2022/09/19 10:39:09;;;;;;;;;;;13.80;99.90;;;;;;4991235;28;19930;-69
2022/09/19 10:41:40;;;;;;;;;;;13.80;99.90;;;;;;4987767;28;19921;-66
2022/09/19 10:44:23;;;;;;;;;;;13.90;99.90;;;;;;5005054;28;19974;-68
2022/09/19 10:46:56;;;;;;;;;;;13.80;99.90;;;;;;5007327;28;19922;-68
2022/09/19 10:49:44;;;;;;;;;;;13.90;99.90;;;;;;4989221;28;19941;-69
2022/09/19 10:52:22;;;;;;;;;;;13.90;99.90;;;;;;5004411;28;20044;-67
2022/09/19 10:55:13;;;;;;;;;;;13.90;99.90;;;;;;5007393;28;20810;-69
2022/09/19 10:57:44;;;;;;;;;;;14.00;99.90;;;;;;4991247;28;19933;-68
2022/09/19 11:00:24;;;;;;;;;;;14.10;99.90;;;;;;4990554;28;20406;-68
2022/09/19 11:02:59;;;;;;;;;;;14.10;99.90;;;;;;4992516;28;20009;-69
2022/09/19 11:05:27;;;;;;;;;;;14.10;99.90;;;;;;5004035;28;20017;-70
2022/09/19 11:07:54;;;;;;;;;;;14.10;99.90;;;;;;5003640;28;19964;-67
2022/09/19 11:10:37;;;;;;;;;;;14.10;99.90;;;;;;4990431;28;20021;-68
2022/09/19 11:13:30;;;;;;;;;;;14.10;99.90;;;;;;4990961;28;20275;-69
2022/09/19 11:16:10;;;;;;;;;;;14.20;99.90;;;;;;4997982;28;19956;-68
2022/09/19 11:18:46;;;;;;;;;;;14.20;99.90;;;;;;5013646;28;20083;-67
2022/09/19 11:21:28;;;;;;;;;;;14.20;99.90;;;;;;4998816;28;20374;-69
2022/09/19 11:23:58;;;;;;;;;;;14.10;99.90;;;;;;4990790;28;19930;-69
2022/09/19 11:26:28;;;;;;;;;;;14.00;99.90;;;;;;4995648;28;19939;-68
2022/09/19 11:29:20;;;;;;;;;;;14.10;99.90;;;;;;5009553;28;20036;-68
2022/09/19 11:32:10;;;;;;;;;;;14.10;99.90;;;;;;4974093;28;19937;-69
2022/09/19 11:35:15;;;;;;;;;;;14.10;99.90;;;;;;5020982;28;19933;-68
2022/09/19 11:38:08;;;;;;;;;;;14.10;99.90;;;;;;5004670;28;20457;-68
2022/09/19 11:41:02;;;;;;;;;;;14.20;99.90;;;;;;5022601;28;20626;-68
2022/09/19 11:43:33;;;;;;;;;;;14.40;99.90;;;;;;5021340;28;19928;-68
2022/09/19 11:46:23;;;;;;;;;;;14.40;99.90;;;;;;5022763;28;20066;-69
2022/09/19 11:48:54;;;;;;;;;;;14.30;99.90;;;;;;5023519;28;20307;-68
2022/09/19 11:51:26;;;;;;;;;;;14.20;99.90;;;;;;5005127;28;19928;-68
2022/09/19 11:54:06;;;;;;;;;;;14.10;99.90;;;;;;5005630;28;19949;-69
2022/09/19 11:56:56;;;;;;;;;;;14.20;99.90;;;;;;5004137;28;19980;-67
2022/09/19 11:59:28;;;;;;;;;;;14.20;99.90;;;;;;5016012;28;20310;-68
2022/09/19 12:02:00;;;;;;;;;;;14.20;99.90;;;;;;5018880;28;19917;-68
2022/09/19 12:04:42;;;;;;;;;;;14.20;99.90;;;;;;5015921;28;19971;-68
2022/09/19 12:07:15;;;;;;;;;;;14.30;99.90;;;;;;5005663;28;19917;-69
2022/09/19 12:09:46;;;;;;;;;;;14.30;99.90;;;;;;5003671;28;19917;-68
2022/09/19 12:12:20;;;;;;;;;;;14.40;99.90;;;;;;5022818;28;20023;-69
2022/09/19 12:15:22;;;;;;;;;;;14.50;99.90;;;;;;5017182;28;19959;-68
2022/09/19 12:18:22;;;;;;;;;;;14.40;99.90;;;;;;5026584;28;20018;-68
2022/09/19 12:20:53;;;;;;;;;;;14.30;99.90;;;;;;4996693;28;20209;-68
2022/09/19 12:26:21;;;;;;;;;;;14.20;99.90;;;;;;5014482;28;19953;-68
2022/09/19 12:28:54;;;;;;;;;;;14.10;99.90;;;;;;5007847;28;20017;-67
2022/09/19 12:31:24;;;;;;;;;;;14.00;99.90;;;;;;4997702;28;19944;-68
2022/09/19 12:33:55;;;;;;;;;;;14.00;99.90;;;;;;5004774;28;20286;-68
2022/09/19 12:36:36;;;;;;;;;;;14.00;99.90;;;;;;5018887;28;19936;-68
2022/09/19 12:39:10;;;;;;;;;;;14.00;99.90;;;;;;5020756;28;19937;-68
2022/09/19 12:41:45;;;;;;;;;;;14.00;99.90;;;;;;5002881;28;20248;-70
2022/09/19 12:44:20;;;;;;;;;;;14.10;99.90;;;;;;5017243;28;20009;-69
2022/09/19 12:46:47;;;;;;;;;;;14.00;99.90;;;;;;5019255;28;19932;-68
2022/09/19 12:49:17;;;;;;;;;;;14.10;99.90;;;;;;5017221;28;19967;-69
2022/09/19 12:51:57;;;;;;;;;;;13.90;99.90;;;;;;5016451;28;19932;-69
2022/09/19 12:54:36;;;;;;;;;;;14.00;99.90;;;;;;5003109;28;19925;-69
2022/09/19 12:57:07;;;;;;;;;;;13.80;99.90;;;;;;5004349;28;19936;-66
2022/09/19 12:59:35;;;;;;;;;;;13.80;99.90;;;;;;5005353;28;20341;-69
2022/09/19 13:02:11;;;;;;;;;;;13.60;99.90;;;;;;5009947;28;20224;-68
2022/09/19 13:04:42;;;;;;;;;;;13.50;99.90;;;;;;5002578;28;19925;-68
2022/09/19 13:07:15;;;;;;;;;;;13.50;99.90;;;;;;5005651;28;19921;-67
2022/09/19 13:10:04;;;;;;;;;;;13.50;99.90;;;;;;5004989;28;19956;-67
2022/09/19 13:12:43;;;;;;;;;;;13.50;99.90;;;;;;5005638;28;20234;-68
2022/09/19 13:15:16;;;;;;;;;;;13.40;99.90;;;;;;5005025;28;19964;-68
2022/09/19 13:23:38;;;;;;;;;;;13.50;99.90;;;;;;5004236;28;19924;-69
2022/09/19 13:26:19;;;;;;;;;;;13.50;99.90;;;;;;5004074;28;19924;-70
2022/09/19 13:28:49;;;;;;;;;;;13.50;99.90;;;;;;5001232;28;20313;-69
2022/09/19 13:31:17;;;;;;;;;;;13.50;99.90;;;;;;5002240;28;19918;-68
2022/09/19 13:33:44;;;;;;;;;;;13.50;99.90;;;;;;5006347;28;19987;-69
2022/09/19 13:36:13;;;;;;;;;;;13.50;99.90;;;;;;5005950;28;20298;-69
2022/09/19 13:38:43;;;;;;;;;;;13.60;99.90;;;;;;5005483;28;20328;-68
2022/09/19 13:41:28;;;;;;;;;;;13.60;99.90;;;;;;5005899;28;19929;-69
2022/09/19 13:44:14;;;;;;;;;;;13.50;99.90;;;;;;5001817;28;19925;-68
2022/09/19 13:47:04;;;;;;;;;;;13.50;99.90;;;;;;5003351;28;20062;-69
2022/09/19 13:49:42;;;;;;;;;;;13.40;99.90;;;;;;5002835;28;19921;-68
2022/09/19 13:52:14;;;;;;;;;;;13.30;99.90;;;;;;4994209;28;19949;-70
2022/09/19 13:54:50;;;;;;;;;;;13.30;99.90;;;;;;4995695;28;19922;-68
2022/09/19 13:57:25;;;;;;;;;;;13.30;99.90;;;;;;4992423;28;19921;-69
2022/09/19 13:59:59;;;;;;;;;;;13.20;99.90;;;;;;4998839;28;19929;-69
2022/09/19 14:02:32;;;;;;;;;;;13.10;99.90;;;;;;4993457;28;19945;-69
2022/09/19 14:05:05;;;;;;;;;;;13.10;99.90;;;;;;4995363;28;19918;-67
2022/09/19 14:07:43;;;;;;;;;;;13.20;99.90;;;;;;4996209;28;19935;-68
2022/09/19 14:10:37;;;;;;;;;;;13.20;99.90;;;;;;4995028;28;19952;-69
2022/09/19 14:13:25;;;;;;;;;;;13.30;99.90;;;;;;5011154;28;19917;-69
2022/09/19 14:15:54;;;;;;;;;;;13.40;99.90;;;;;;4995093;28;20004;-68
2022/09/19 14:18:25;;;;;;;;;;;13.40;99.90;;;;;;5001403;28;19983;-70
2022/09/19 14:20:59;;;;;;;;;;;13.40;99.90;;;;;;5010566;28;20267;-68
2022/09/19 14:23:28;;;;;;;;;;;13.40;99.90;;;;;;5002620;28;19952;-68
2022/09/19 14:26:12;;;;;;;;;;;13.10;99.90;;;;;;5003679;28;19922;-66
2022/09/19 14:28:45;;;;;;;;;;;13.00;99.90;;;;;;5001848;28;20044;-67
2022/09/19 14:31:12;;;;;;;;;;;13.10;99.90;;;;;;5003478;28;20254;-66
2022/09/19 14:33:42;;;;;;;;;;;13.10;99.90;;;;;;5006818;28;19928;-67
2022/09/19 14:36:24;;;;;;;;;;;13.10;99.90;;;;;;5003807;28;20239;-67
2022/09/19 14:38:51;;;;;;;;;;;13.10;99.90;;;;;;5004607;28;19968;-68
2022/09/19 14:41:41;;;;;;;;;;;13.00;99.90;;;;;;5003261;28;19921;-68
2022/09/19 14:44:40;;;;;;;;;;;13.10;99.90;;;;;;5012037;28;19925;-67
2022/09/19 14:47:13;;;;;;;;;;;13.00;99.90;;;;;;5000245;28;20020;-67
2022/09/19 14:49:52;;;;;;;;;;;13.00;99.90;;;;;;4996838;28;20004;-66
2022/09/19 14:52:20;;;;;;;;;;;13.10;99.90;;;;;;4995207;28;20213;-71
2022/09/19 14:55:11;;;;;;;;;;;13.00;99.90;;;;;;4996663;28;19925;-70
2022/09/19 14:57:46;;;;;;;;;;;13.00;99.90;;;;;;4998821;28;19945;-72
2022/09/19 15:00:23;;;;;;;;;;;13.00;99.90;;;;;;5003920;28;19945;-71
2022/09/19 15:02:51;;;;;;;;;;;13.00;99.90;;;;;;5021737;28;19944;-72
2022/09/19 15:05:24;;;;;;;;;;;12.90;99.90;;;;;;5005293;28;19991;-73
2022/09/19 15:07:51;;;;;;;;;;;12.90;99.90;;;;;;5003470;28;19917;-69
2022/09/19 15:10:23;;;;;;;;;;;12.90;99.90;;;;;;4997583;28;19917;-69
2022/09/19 15:12:51;;;;;;;;;;;13.00;99.90;;;;;;4997864;28;19917;-68
2022/09/19 15:15:18;;;;;;;;;;;13.00;99.90;;;;;;5016283;28;19957;-74
2022/09/19 15:17:46;;;;;;;;;;;12.90;99.90;;;;;;5000433;28;20020;-68
2022/09/19 15:20:15;;;;;;;;;;;12.90;99.90;;;;;;4997731;28;19921;-67